sensor_id;sensor_type;location;lat;lon;timestamp;temperature;humidity
15844;DHT22;50807;52.436;13.346;2022-09-09T00:00:15;18.90;99.90
15844;DHT22;50807;52.436;13.346;2022-09-09T00:00:53;18.90;99.90
15844;DHT22;50807;52.436;13.346;2022-09-09T00:01:32;18.90;99.90
15844;DHT22;50807;52.436;13.346;2022-09-09T00:02:15;18.80;99.90
15844;DHT22;50807;52.436;13.346;2022-09-09T00:02:55;18.80;99.90
15844;DHT22;50807;52.436;13.346;2022-09-09T00:03:40;18.90;99.90
15844;DHT22;50807;52.436;13.346;2022-09-09T00:04:24;18.90;99.90
15844;DHT22;50807;52.436;13.346;2022-09-09T00:05:04;18.90;99.90
15844;DHT22;50807;52.436;13.346;2022-09-09T00:05:51;18.90;99.90
15844;DHT22;50807;52.436;13.346;2022-09-09T00:06:31;18.90;99.90
15844;DHT22;50807;52.436;13.346;2022-09-09T00:07:15;18.80;99.90
15844;DHT22;50807;52.436;13.346;2022-09-09T00:07:55;18.80;99.90
15844;DHT22;50807;52.436;13.346;2022-09-09T00:08:37;18.80;99.90
15844;DHT22;50807;52.436;13.346;2022-09-09T00:09:18;18.80;99.90
15844;DHT22;50807;52.436;13.346;2022-09-09T00:10:00;18.80;99.90
15844;DHT22;50807;52.436;13.346;2022-09-09T00:10:39;18.80;99.90
15844;DHT22;50807;52.436;13.346;2022-09-09T00:11:13;18.80;99.90
15844;DHT22;50807;52.436;13.346;2022-09-09T00:11:56;18.80;99.90
15844;DHT22;50807;52.436;13.346;2022-09-09T00:12:38;18.80;99.90
15844;DHT22;50807;52.436;13.346;2022-09-09T00:13:23;18.80;99.90
15844;DHT22;50807;52.436;13.346;2022-09-09T00:14:00;18.80;99.90
15844;DHT22;50807;52.436;13.346;2022-09-09T00:14:47;18.80;99.90
15844;DHT22;50807;52.436;13.346;2022-09-09T00:15:25;18.80;99.90
15844;DHT22;50807;52.436;13.346;2022-09-09T00:16:06;18.80;99.90
15844;DHT22;50807;52.436;13.346;2022-09-09T00:16:47;18.80;99.90
15844;DHT22;50807;52.436;13.346;2022-09-09T00:17:32;18.70;99.90
15844;DHT22;50807;52.436;13.346;2022-09-09T00:18:15;18.70;99.90
15844;DHT22;50807;52.436;13.346;2022-09-09T00:18:57;18.70;99.90
15844;DHT22;50807;52.436;13.346;2022-09-09T00:19:41;18.70;99.90
15844;DHT22;50807;52.436;13.346;2022-09-09T00:20:21;18.70;99.90
15844;DHT22;50807;52.436;13.346;2022-09-09T00:21:04;18.70;99.90
15844;DHT22;50807;52.436;13.346;2022-09-09T00:21:42;18.70;99.90
15844;DHT22;50807;52.436;13.346;2022-09-09T00:22:18;18.70;99.90
15844;DHT22;50807;52.436;13.346;2022-09-09T00:22:57;18.70;99.90
15844;DHT22;50807;52.436;13.346;2022-09-09T00:23:38;18.70;99.90
15844;DHT22;50807;52.436;13.346;2022-09-09T00:24:24;18.70;99.90
15844;DHT22;50807;52.436;13.346;2022-09-09T00:25:04;18.70;99.90
15844;DHT22;50807;52.436;13.346;2022-09-09T00:25:48;18.70;99.90
15844;DHT22;50807;52.436;13.346;2022-09-09T00:26:32;18.70;99.90
15844;DHT22;50807;52.436;13.346;2022-09-09T00:27:16;18.70;99.90
15844;DHT22;50807;52.436;13.346;2022-09-09T00:27:53;18.70;99.90
15844;DHT22;50807;52.436;13.346;2022-09-09T00:28:27;18.70;99.90
15844;DHT22;50807;52.436;13.346;2022-09-09T00:29:04;18.70;99.90
15844;DHT22;50807;52.436;13.346;2022-09-09T00:29:45;18.60;99.90
15844;DHT22;50807;52.436;13.346;2022-09-09T00:30:25;18.70;99.90
15844;DHT22;50807;52.436;13.346;2022-09-09T00:31:01;18.60;99.90
15844;DHT22;50807;52.436;13.346;2022-09-09T00:31:39;18.60;99.90
15844;DHT22;50807;52.436;13.346;2022-09-09T00:32:13;18.60;99.90
15844;DHT22;50807;52.436;13.346;2022-09-09T00:32:45;18.60;99.90
15844;DHT22;50807;52.436;13.346;2022-09-09T00:33:19;18.60;99.90
15844;DHT22;50807;52.436;13.346;2022-09-09T00:33:54;18.60;99.90
15844;DHT22;50807;52.436;13.346;2022-09-09T00:34:29;18.60;99.90
15844;DHT22;50807;52.436;13.346;2022-09-09T00:35:04;18.60;99.90
15844;DHT22;50807;52.436;13.346;2022-09-09T00:35:49;18.60;99.90
15844;DHT22;50807;52.436;13.346;2022-09-09T00:36:24;18.60;99.90
15844;DHT22;50807;52.436;13.346;2022-09-09T00:36:59;18.60;99.90
15844;DHT22;50807;52.436;13.346;2022-09-09T00:37:32;18.50;99.90
15844;DHT22;50807;52.436;13.346;2022-09-09T00:38:10;18.50;99.90
15844;DHT22;50807;52.436;13.346;2022-09-09T00:38:48;18.50;99.90
15844;DHT22;50807;52.436;13.346;2022-09-09T00:39:27;18.50;99.90
15844;DHT22;50807;52.436;13.346;2022-09-09T00:40:07;18.50;99.90
15844;DHT22;50807;52.436;13.346;2022-09-09T00:40:50;18.50;99.90
15844;DHT22;50807;52.436;13.346;2022-09-09T00:41:32;18.50;99.90
15844;DHT22;50807;52.436;13.346;2022-09-09T00:42:16;18.50;99.90
15844;DHT22;50807;52.436;13.346;2022-09-09T00:42:51;18.50;99.90
15844;DHT22;50807;52.436;13.346;2022-09-09T00:43:30;18.50;99.90
15844;DHT22;50807;52.436;13.346;2022-09-09T00:44:18;18.50;99.90
15844;DHT22;50807;52.436;13.346;2022-09-09T00:45:08;18.50;99.90
15844;DHT22;50807;52.436;13.346;2022-09-09T00:48:25;18.60;99.90
15844;DHT22;50807;52.436;13.346;2022-09-09T00:49:05;18.60;99.90
15844;DHT22;50807;52.436;13.346;2022-09-09T00:49:53;18.60;99.90
15844;DHT22;50807;52.436;13.346;2022-09-09T00:50:42;18.50;99.90
15844;DHT22;50807;52.436;13.346;2022-09-09T00:51:28;18.50;99.90
15844;DHT22;50807;52.436;13.346;2022-09-09T00:52:15;18.50;99.90
15844;DHT22;50807;52.436;13.346;2022-09-09T00:53:05;18.50;99.90
15844;DHT22;50807;52.436;13.346;2022-09-09T00:54:04;18.50;99.90
15844;DHT22;50807;52.436;13.346;2022-09-09T00:54:51;18.50;99.90
15844;DHT22;50807;52.436;13.346;2022-09-09T00:55:33;18.50;99.90
15844;DHT22;50807;52.436;13.346;2022-09-09T00:56:13;18.50;99.90
15844;DHT22;50807;52.436;13.346;2022-09-09T00:56:53;18.50;99.90
15844;DHT22;50807;52.436;13.346;2022-09-09T00:57:35;18.50;99.90
15844;DHT22;50807;52.436;13.346;2022-09-09T00:58:07;18.50;99.90
15844;DHT22;50807;52.436;13.346;2022-09-09T00:58:42;18.50;99.90
15844;DHT22;50807;52.436;13.346;2022-09-09T00:59:26;18.50;99.90
15844;DHT22;50807;52.436;13.346;2022-09-09T01:00:22;18.40;99.90
15844;DHT22;50807;52.436;13.346;2022-09-09T01:00:59;18.40;99.90
15844;DHT22;50807;52.436;13.346;2022-09-09T01:01:37;18.40;99.90
15844;DHT22;50807;52.436;13.346;2022-09-09T01:02:16;18.40;99.90
15844;DHT22;50807;52.436;13.346;2022-09-09T01:03:05;18.40;99.90
15844;DHT22;50807;52.436;13.346;2022-09-09T01:03:53;18.40;99.90
15844;DHT22;50807;52.436;13.346;2022-09-09T01:04:32;18.40;99.90
15844;DHT22;50807;52.436;13.346;2022-09-09T01:05:12;18.40;99.90
15844;DHT22;50807;52.436;13.346;2022-09-09T01:05:54;18.40;99.90
15844;DHT22;50807;52.436;13.346;2022-09-09T01:06:35;18.40;99.90
15844;DHT22;50807;52.436;13.346;2022-09-09T01:07:13;18.40;99.90
15844;DHT22;50807;52.436;13.346;2022-09-09T01:07:48;18.30;99.90
15844;DHT22;50807;52.436;13.346;2022-09-09T01:09:45;18.30;99.90
15844;DHT22;50807;52.436;13.346;2022-09-09T01:10:32;18.30;99.90
15844;DHT22;50807;52.436;13.346;2022-09-09T01:11:20;18.30;99.90
15844;DHT22;50807;52.436;13.346;2022-09-09T01:12:01;18.30;99.90
15844;DHT22;50807;52.436;13.346;2022-09-09T01:12:40;18.30;99.90
15844;DHT22;50807;52.436;13.346;2022-09-09T01:13:18;18.30;99.90
15844;DHT22;50807;52.436;13.346;2022-09-09T01:13:58;18.30;99.90
15844;DHT22;50807;52.436;13.346;2022-09-09T01:14:40;18.30;99.90
15844;DHT22;50807;52.436;13.346;2022-09-09T01:15:19;18.30;99.90
15844;DHT22;50807;52.436;13.346;2022-09-09T01:15:57;18.30;99.90
15844;DHT22;50807;52.436;13.346;2022-09-09T01:16:31;18.30;99.90
15844;DHT22;50807;52.436;13.346;2022-09-09T01:17:05;18.30;99.90
15844;DHT22;50807;52.436;13.346;2022-09-09T01:17:53;18.20;99.90
15844;DHT22;50807;52.436;13.346;2022-09-09T01:18:33;18.20;99.90
15844;DHT22;50807;52.436;13.346;2022-09-09T01:19:10;18.20;99.90
15844;DHT22;50807;52.436;13.346;2022-09-09T01:19:58;18.20;99.90
15844;DHT22;50807;52.436;13.346;2022-09-09T01:20:42;18.20;99.90
15844;DHT22;50807;52.436;13.346;2022-09-09T01:21:32;18.20;99.90
15844;DHT22;50807;52.436;13.346;2022-09-09T01:22:14;18.20;99.90
15844;DHT22;50807;52.436;13.346;2022-09-09T01:23:11;18.20;99.90
15844;DHT22;50807;52.436;13.346;2022-09-09T01:24:05;18.20;99.90
15844;DHT22;50807;52.436;13.346;2022-09-09T01:25:07;18.20;99.90
15844;DHT22;50807;52.436;13.346;2022-09-09T01:26:18;18.20;99.90
15844;DHT22;50807;52.436;13.346;2022-09-09T01:26:56;18.20;99.90
15844;DHT22;50807;52.436;13.346;2022-09-09T01:27:33;18.20;99.90
15844;DHT22;50807;52.436;13.346;2022-09-09T01:28:09;18.20;99.90
15844;DHT22;50807;52.436;13.346;2022-09-09T01:28:46;18.20;99.90
15844;DHT22;50807;52.436;13.346;2022-09-09T01:29:21;18.20;99.90
15844;DHT22;50807;52.436;13.346;2022-09-09T01:29:54;18.20;99.90
15844;DHT22;50807;52.436;13.346;2022-09-09T01:30:26;18.20;99.90
15844;DHT22;50807;52.436;13.346;2022-09-09T01:30:59;18.20;99.90
15844;DHT22;50807;52.436;13.346;2022-09-09T01:31:36;18.20;99.90
15844;DHT22;50807;52.436;13.346;2022-09-09T01:32:42;18.20;99.90
15844;DHT22;50807;52.436;13.346;2022-09-09T01:33:16;18.10;99.90
15844;DHT22;50807;52.436;13.346;2022-09-09T01:33:50;18.20;99.90
15844;DHT22;50807;52.436;13.346;2022-09-09T01:34:22;18.10;99.90
15844;DHT22;50807;52.436;13.346;2022-09-09T01:34:54;18.10;99.90
15844;DHT22;50807;52.436;13.346;2022-09-09T01:35:40;18.10;99.90
15844;DHT22;50807;52.436;13.346;2022-09-09T01:36:22;18.10;99.90
15844;DHT22;50807;52.436;13.346;2022-09-09T01:37:02;18.10;99.90
15844;DHT22;50807;52.436;13.346;2022-09-09T01:37:35;18.10;99.90
15844;DHT22;50807;52.436;13.346;2022-09-09T01:38:06;18.10;99.90
15844;DHT22;50807;52.436;13.346;2022-09-09T01:38:38;18.10;99.90
15844;DHT22;50807;52.436;13.346;2022-09-09T01:39:10;18.10;99.90
15844;DHT22;50807;52.436;13.346;2022-09-09T01:39:43;18.10;99.90
15844;DHT22;50807;52.436;13.346;2022-09-09T01:40:15;18.10;99.90
15844;DHT22;50807;52.436;13.346;2022-09-09T01:40:47;18.00;99.90
15844;DHT22;50807;52.436;13.346;2022-09-09T01:41:21;18.00;99.90
15844;DHT22;50807;52.436;13.346;2022-09-09T01:41:52;18.00;99.90
15844;DHT22;50807;52.436;13.346;2022-09-09T01:42:23;18.00;99.90
15844;DHT22;50807;52.436;13.346;2022-09-09T01:42:56;18.00;99.90
15844;DHT22;50807;52.436;13.346;2022-09-09T01:43:27;18.00;99.90
15844;DHT22;50807;52.436;13.346;2022-09-09T01:43:59;18.00;99.90
15844;DHT22;50807;52.436;13.346;2022-09-09T01:44:32;18.00;99.90
15844;DHT22;50807;52.436;13.346;2022-09-09T01:45:04;18.00;99.90
15844;DHT22;50807;52.436;13.346;2022-09-09T01:45:36;18.00;99.90
15844;DHT22;50807;52.436;13.346;2022-09-09T01:46:11;18.00;99.90
15844;DHT22;50807;52.436;13.346;2022-09-09T01:46:43;18.00;99.90
15844;DHT22;50807;52.436;13.346;2022-09-09T01:47:14;18.00;99.90
15844;DHT22;50807;52.436;13.346;2022-09-09T01:47:48;18.00;99.90
15844;DHT22;50807;52.436;13.346;2022-09-09T01:48:21;18.00;99.90
15844;DHT22;50807;52.436;13.346;2022-09-09T01:48:55;18.00;99.90
15844;DHT22;50807;52.436;13.346;2022-09-09T01:49:28;18.00;99.90
15844;DHT22;50807;52.436;13.346;2022-09-09T01:49:59;18.00;99.90
15844;DHT22;50807;52.436;13.346;2022-09-09T01:50:31;18.00;99.90
15844;DHT22;50807;52.436;13.346;2022-09-09T01:51:04;18.00;99.90
15844;DHT22;50807;52.436;13.346;2022-09-09T01:51:36;18.00;99.90
15844;DHT22;50807;52.436;13.346;2022-09-09T01:52:09;18.00;99.90
15844;DHT22;50807;52.436;13.346;2022-09-09T01:52:42;18.00;99.90
15844;DHT22;50807;52.436;13.346;2022-09-09T01:53:15;18.00;99.90
15844;DHT22;50807;52.436;13.346;2022-09-09T01:53:47;18.00;99.90
15844;DHT22;50807;52.436;13.346;2022-09-09T01:54:21;18.00;99.90
15844;DHT22;50807;52.436;13.346;2022-09-09T01:54:54;18.00;99.90
15844;DHT22;50807;52.436;13.346;2022-09-09T01:55:29;18.00;99.90
15844;DHT22;50807;52.436;13.346;2022-09-09T01:56:10;18.00;99.90
15844;DHT22;50807;52.436;13.346;2022-09-09T01:56:59;18.00;99.90
15844;DHT22;50807;52.436;13.346;2022-09-09T01:57:43;18.00;99.90
15844;DHT22;50807;52.436;13.346;2022-09-09T01:58:28;18.00;99.90
15844;DHT22;50807;52.436;13.346;2022-09-09T01:59:13;18.00;99.90
15844;DHT22;50807;52.436;13.346;2022-09-09T02:00:02;18.00;99.90
15844;DHT22;50807;52.436;13.346;2022-09-09T02:00:39;18.00;99.90
15844;DHT22;50807;52.436;13.346;2022-09-09T02:01:24;18.00;99.90
15844;DHT22;50807;52.436;13.346;2022-09-09T02:02:11;18.00;99.90
15844;DHT22;50807;52.436;13.346;2022-09-09T02:02:54;18.00;99.90
15844;DHT22;50807;52.436;13.346;2022-09-09T02:03:32;18.00;99.90
15844;DHT22;50807;52.436;13.346;2022-09-09T02:04:10;18.00;99.90
15844;DHT22;50807;52.436;13.346;2022-09-09T02:04:55;18.00;99.90
15844;DHT22;50807;52.436;13.346;2022-09-09T02:05:36;18.00;99.90
15844;DHT22;50807;52.436;13.346;2022-09-09T02:06:17;18.00;99.90
15844;DHT22;50807;52.436;13.346;2022-09-09T02:06:56;18.00;99.90
15844;DHT22;50807;52.436;13.346;2022-09-09T02:07:38;18.00;99.90
15844;DHT22;50807;52.436;13.346;2022-09-09T02:08:16;18.00;99.90
15844;DHT22;50807;52.436;13.346;2022-09-09T02:08:52;18.00;99.90
15844;DHT22;50807;52.436;13.346;2022-09-09T02:09:27;17.90;99.90
15844;DHT22;50807;52.436;13.346;2022-09-09T02:10:08;18.00;99.90
15844;DHT22;50807;52.436;13.346;2022-09-09T02:10:46;17.90;99.90
15844;DHT22;50807;52.436;13.346;2022-09-09T02:11:23;18.00;99.90
15844;DHT22;50807;52.436;13.346;2022-09-09T02:12:02;17.90;99.90
15844;DHT22;50807;52.436;13.346;2022-09-09T02:12:41;17.90;99.90
15844;DHT22;50807;52.436;13.346;2022-09-09T02:13:19;17.90;99.90
15844;DHT22;50807;52.436;13.346;2022-09-09T02:13:54;17.90;99.90
15844;DHT22;50807;52.436;13.346;2022-09-09T02:14:35;17.90;99.90
15844;DHT22;50807;52.436;13.346;2022-09-09T02:15:18;17.90;99.90
15844;DHT22;50807;52.436;13.346;2022-09-09T02:15:57;17.90;99.90
15844;DHT22;50807;52.436;13.346;2022-09-09T02:16:37;17.90;99.90
15844;DHT22;50807;52.436;13.346;2022-09-09T02:17:13;17.90;99.90
15844;DHT22;50807;52.436;13.346;2022-09-09T02:17:50;17.90;99.90
15844;DHT22;50807;52.436;13.346;2022-09-09T02:18:27;17.90;99.90
15844;DHT22;50807;52.436;13.346;2022-09-09T02:19:02;17.90;99.90
15844;DHT22;50807;52.436;13.346;2022-09-09T02:19:42;17.90;99.90
15844;DHT22;50807;52.436;13.346;2022-09-09T02:20:20;17.90;99.90
15844;DHT22;50807;52.436;13.346;2022-09-09T02:20:56;17.90;99.90
15844;DHT22;50807;52.436;13.346;2022-09-09T02:21:30;17.90;99.90
15844;DHT22;50807;52.436;13.346;2022-09-09T02:22:05;17.80;99.90
15844;DHT22;50807;52.436;13.346;2022-09-09T02:22:39;17.80;99.90
15844;DHT22;50807;52.436;13.346;2022-09-09T02:23:14;17.80;99.90
15844;DHT22;50807;52.436;13.346;2022-09-09T02:23:48;17.80;99.90
15844;DHT22;50807;52.436;13.346;2022-09-09T02:24:22;17.80;99.90
15844;DHT22;50807;52.436;13.346;2022-09-09T02:24:56;17.80;99.90
15844;DHT22;50807;52.436;13.346;2022-09-09T02:25:29;17.80;99.90
15844;DHT22;50807;52.436;13.346;2022-09-09T02:26:02;17.80;99.90
15844;DHT22;50807;52.436;13.346;2022-09-09T02:26:37;17.80;99.90
15844;DHT22;50807;52.436;13.346;2022-09-09T02:27:13;17.80;99.90
15844;DHT22;50807;52.436;13.346;2022-09-09T02:27:47;17.80;99.90
15844;DHT22;50807;52.436;13.346;2022-09-09T02:28:21;17.80;99.90
15844;DHT22;50807;52.436;13.346;2022-09-09T02:29:00;17.80;99.90
15844;DHT22;50807;52.436;13.346;2022-09-09T02:29:36;17.80;99.90
15844;DHT22;50807;52.436;13.346;2022-09-09T02:30:10;17.80;99.90
15844;DHT22;50807;52.436;13.346;2022-09-09T02:30:44;17.70;99.90
15844;DHT22;50807;52.436;13.346;2022-09-09T02:31:20;17.70;99.90
15844;DHT22;50807;52.436;13.346;2022-09-09T02:31:56;17.70;99.90
15844;DHT22;50807;52.436;13.346;2022-09-09T02:32:31;17.70;99.90
15844;DHT22;50807;52.436;13.346;2022-09-09T02:33:04;17.70;99.90
15844;DHT22;50807;52.436;13.346;2022-09-09T02:33:42;17.70;99.90
15844;DHT22;50807;52.436;13.346;2022-09-09T02:34:20;17.70;99.90
15844;DHT22;50807;52.436;13.346;2022-09-09T02:34:58;17.70;99.90
15844;DHT22;50807;52.436;13.346;2022-09-09T02:35:34;17.70;99.90
15844;DHT22;50807;52.436;13.346;2022-09-09T02:36:08;17.70;99.90
15844;DHT22;50807;52.436;13.346;2022-09-09T02:36:43;17.70;99.90
15844;DHT22;50807;52.436;13.346;2022-09-09T02:37:19;17.70;99.90
15844;DHT22;50807;52.436;13.346;2022-09-09T02:37:55;17.70;99.90
15844;DHT22;50807;52.436;13.346;2022-09-09T02:38:33;17.70;99.90
15844;DHT22;50807;52.436;13.346;2022-09-09T02:39:10;17.70;99.90
15844;DHT22;50807;52.436;13.346;2022-09-09T02:39:42;17.70;99.90
15844;DHT22;50807;52.436;13.346;2022-09-09T02:40:14;17.70;99.90
15844;DHT22;50807;52.436;13.346;2022-09-09T02:40:46;17.70;99.90
15844;DHT22;50807;52.436;13.346;2022-09-09T02:41:18;17.70;99.90
15844;DHT22;50807;52.436;13.346;2022-09-09T02:41:52;17.70;99.90
15844;DHT22;50807;52.436;13.346;2022-09-09T02:42:25;17.70;99.90
15844;DHT22;50807;52.436;13.346;2022-09-09T02:42:56;17.70;99.90
15844;DHT22;50807;52.436;13.346;2022-09-09T02:43:31;17.70;99.90
15844;DHT22;50807;52.436;13.346;2022-09-09T02:44:05;17.70;99.90
15844;DHT22;50807;52.436;13.346;2022-09-09T02:44:40;17.70;99.90
15844;DHT22;50807;52.436;13.346;2022-09-09T02:45:14;17.70;99.90
15844;DHT22;50807;52.436;13.346;2022-09-09T02:45:53;17.70;99.90
15844;DHT22;50807;52.436;13.346;2022-09-09T02:46:41;17.70;99.90
15844;DHT22;50807;52.436;13.346;2022-09-09T02:47:29;17.70;99.90
15844;DHT22;50807;52.436;13.346;2022-09-09T02:48:12;17.70;99.90
15844;DHT22;50807;52.436;13.346;2022-09-09T02:48:55;17.70;99.90
15844;DHT22;50807;52.436;13.346;2022-09-09T02:49:39;17.70;99.90
15844;DHT22;50807;52.436;13.346;2022-09-09T02:50:23;17.70;99.90
15844;DHT22;50807;52.436;13.346;2022-09-09T02:51:02;17.70;99.90
15844;DHT22;50807;52.436;13.346;2022-09-09T02:51:47;17.70;99.90
15844;DHT22;50807;52.436;13.346;2022-09-09T02:52:30;17.70;99.90
15844;DHT22;50807;52.436;13.346;2022-09-09T02:53:10;17.70;99.90
15844;DHT22;50807;52.436;13.346;2022-09-09T02:53:50;17.70;99.90
15844;DHT22;50807;52.436;13.346;2022-09-09T02:54:31;17.70;99.90
15844;DHT22;50807;52.436;13.346;2022-09-09T02:55:08;17.70;99.90
15844;DHT22;50807;52.436;13.346;2022-09-09T02:55:48;17.70;99.90
15844;DHT22;50807;52.436;13.346;2022-09-09T02:56:27;17.70;99.90
15844;DHT22;50807;52.436;13.346;2022-09-09T02:57:08;17.70;99.90
15844;DHT22;50807;52.436;13.346;2022-09-09T02:57:44;17.70;99.90
15844;DHT22;50807;52.436;13.346;2022-09-09T02:58:18;17.70;99.90
15844;DHT22;50807;52.436;13.346;2022-09-09T02:58:49;17.70;99.90
15844;DHT22;50807;52.436;13.346;2022-09-09T02:59:22;17.70;99.90
15844;DHT22;50807;52.436;13.346;2022-09-09T02:59:57;17.60;99.90
15844;DHT22;50807;52.436;13.346;2022-09-09T03:00:29;17.60;99.90
15844;DHT22;50807;52.436;13.346;2022-09-09T03:01:01;17.60;99.90
15844;DHT22;50807;52.436;13.346;2022-09-09T03:01:33;17.60;99.90
15844;DHT22;50807;52.436;13.346;2022-09-09T03:02:06;17.60;99.90
15844;DHT22;50807;52.436;13.346;2022-09-09T03:02:41;17.60;99.90
15844;DHT22;50807;52.436;13.346;2022-09-09T03:03:13;17.60;99.90
15844;DHT22;50807;52.436;13.346;2022-09-09T03:03:44;17.60;99.90
15844;DHT22;50807;52.436;13.346;2022-09-09T03:04:16;17.60;99.90
15844;DHT22;50807;52.436;13.346;2022-09-09T03:04:47;17.60;99.90
15844;DHT22;50807;52.436;13.346;2022-09-09T03:05:21;17.60;99.90
15844;DHT22;50807;52.436;13.346;2022-09-09T03:05:54;17.60;99.90
15844;DHT22;50807;52.436;13.346;2022-09-09T03:06:25;17.60;99.90
15844;DHT22;50807;52.436;13.346;2022-09-09T03:06:55;17.60;99.90
15844;DHT22;50807;52.436;13.346;2022-09-09T03:07:27;17.60;99.90
15844;DHT22;50807;52.436;13.346;2022-09-09T03:07:59;17.60;99.90
15844;DHT22;50807;52.436;13.346;2022-09-09T03:08:30;17.60;99.90
15844;DHT22;50807;52.436;13.346;2022-09-09T03:09:01;17.60;99.90
15844;DHT22;50807;52.436;13.346;2022-09-09T03:09:33;17.60;99.90
15844;DHT22;50807;52.436;13.346;2022-09-09T03:10:05;17.60;99.90
15844;DHT22;50807;52.436;13.346;2022-09-09T03:10:36;17.60;99.90
15844;DHT22;50807;52.436;13.346;2022-09-09T03:11:09;17.60;99.90
15844;DHT22;50807;52.436;13.346;2022-09-09T03:11:40;17.60;99.90
15844;DHT22;50807;52.436;13.346;2022-09-09T03:12:11;17.60;99.90
15844;DHT22;50807;52.436;13.346;2022-09-09T03:12:43;17.60;99.90
15844;DHT22;50807;52.436;13.346;2022-09-09T03:13:15;17.60;99.90
15844;DHT22;50807;52.436;13.346;2022-09-09T03:13:46;17.50;99.90
15844;DHT22;50807;52.436;13.346;2022-09-09T03:14:17;17.50;99.90
15844;DHT22;50807;52.436;13.346;2022-09-09T03:14:51;17.50;99.90
15844;DHT22;50807;52.436;13.346;2022-09-09T03:15:23;17.50;99.90
15844;DHT22;50807;52.436;13.346;2022-09-09T03:15:54;17.50;99.90
15844;DHT22;50807;52.436;13.346;2022-09-09T03:16:25;17.50;99.90
15844;DHT22;50807;52.436;13.346;2022-09-09T03:16:57;17.50;99.90
15844;DHT22;50807;52.436;13.346;2022-09-09T03:17:31;17.50;99.90
15844;DHT22;50807;52.436;13.346;2022-09-09T03:18:02;17.50;99.90
15844;DHT22;50807;52.436;13.346;2022-09-09T03:18:34;17.50;99.90
15844;DHT22;50807;52.436;13.346;2022-09-09T03:19:05;17.50;99.90
15844;DHT22;50807;52.436;13.346;2022-09-09T03:19:37;17.50;99.90
15844;DHT22;50807;52.436;13.346;2022-09-09T03:20:10;17.50;99.90
15844;DHT22;50807;52.436;13.346;2022-09-09T03:20:42;17.50;99.90
15844;DHT22;50807;52.436;13.346;2022-09-09T03:21:13;17.50;99.90
15844;DHT22;50807;52.436;13.346;2022-09-09T03:21:45;17.50;99.90
15844;DHT22;50807;52.436;13.346;2022-09-09T03:22:16;17.50;99.90
15844;DHT22;50807;52.436;13.346;2022-09-09T03:22:47;17.50;99.90
15844;DHT22;50807;52.436;13.346;2022-09-09T03:23:18;17.50;99.90
15844;DHT22;50807;52.436;13.346;2022-09-09T03:23:49;17.50;99.90
15844;DHT22;50807;52.436;13.346;2022-09-09T03:24:20;17.50;99.90
15844;DHT22;50807;52.436;13.346;2022-09-09T03:24:53;17.50;99.90
15844;DHT22;50807;52.436;13.346;2022-09-09T03:25:24;17.50;99.90
15844;DHT22;50807;52.436;13.346;2022-09-09T03:25:56;17.50;99.90
15844;DHT22;50807;52.436;13.346;2022-09-09T03:26:29;17.50;99.90
15844;DHT22;50807;52.436;13.346;2022-09-09T03:27:00;17.50;99.90
15844;DHT22;50807;52.436;13.346;2022-09-09T03:27:31;17.50;99.90
15844;DHT22;50807;52.436;13.346;2022-09-09T03:28:05;17.50;99.90
15844;DHT22;50807;52.436;13.346;2022-09-09T03:28:36;17.40;99.90
15844;DHT22;50807;52.436;13.346;2022-09-09T03:29:07;17.50;99.90
15844;DHT22;50807;52.436;13.346;2022-09-09T03:29:39;17.40;99.90
15844;DHT22;50807;52.436;13.346;2022-09-09T03:30:11;17.40;99.90
15844;DHT22;50807;52.436;13.346;2022-09-09T03:30:42;17.40;99.90
15844;DHT22;50807;52.436;13.346;2022-09-09T03:31:14;17.40;99.90
15844;DHT22;50807;52.436;13.346;2022-09-09T03:31:45;17.40;99.90
15844;DHT22;50807;52.436;13.346;2022-09-09T03:32:15;17.40;99.90
15844;DHT22;50807;52.436;13.346;2022-09-09T03:32:47;17.40;99.90
15844;DHT22;50807;52.436;13.346;2022-09-09T03:33:18;17.40;99.90
15844;DHT22;50807;52.436;13.346;2022-09-09T03:33:49;17.40;99.90
15844;DHT22;50807;52.436;13.346;2022-09-09T03:34:21;17.40;99.90
15844;DHT22;50807;52.436;13.346;2022-09-09T03:34:52;17.40;99.90
15844;DHT22;50807;52.436;13.346;2022-09-09T03:35:24;17.40;99.90
15844;DHT22;50807;52.436;13.346;2022-09-09T03:35:55;17.40;99.90
15844;DHT22;50807;52.436;13.346;2022-09-09T03:36:27;17.40;99.90
15844;DHT22;50807;52.436;13.346;2022-09-09T03:36:59;17.40;99.90
15844;DHT22;50807;52.436;13.346;2022-09-09T03:37:30;17.40;99.90
15844;DHT22;50807;52.436;13.346;2022-09-09T03:38:02;17.40;99.90
15844;DHT22;50807;52.436;13.346;2022-09-09T03:38:34;17.40;99.90
15844;DHT22;50807;52.436;13.346;2022-09-09T03:39:05;17.40;99.90
15844;DHT22;50807;52.436;13.346;2022-09-09T03:39:36;17.40;99.90
15844;DHT22;50807;52.436;13.346;2022-09-09T03:40:08;17.40;99.90
15844;DHT22;50807;52.436;13.346;2022-09-09T03:40:48;17.40;99.90
15844;DHT22;50807;52.436;13.346;2022-09-09T03:41:20;17.40;99.90
15844;DHT22;50807;52.436;13.346;2022-09-09T03:41:54;17.40;99.90
15844;DHT22;50807;52.436;13.346;2022-09-09T03:42:24;17.40;99.90
15844;DHT22;50807;52.436;13.346;2022-09-09T03:42:55;17.40;99.90
15844;DHT22;50807;52.436;13.346;2022-09-09T03:43:29;17.40;99.90
15844;DHT22;50807;52.436;13.346;2022-09-09T03:44:00;17.40;99.90
15844;DHT22;50807;52.436;13.346;2022-09-09T03:44:31;17.40;99.90
15844;DHT22;50807;52.436;13.346;2022-09-09T03:45:03;17.40;99.90
15844;DHT22;50807;52.436;13.346;2022-09-09T03:45:35;17.40;99.90
15844;DHT22;50807;52.436;13.346;2022-09-09T03:46:06;17.40;99.90
15844;DHT22;50807;52.436;13.346;2022-09-09T03:46:38;17.40;99.90
15844;DHT22;50807;52.436;13.346;2022-09-09T03:47:09;17.40;99.90
15844;DHT22;50807;52.436;13.346;2022-09-09T03:47:40;17.30;99.90
15844;DHT22;50807;52.436;13.346;2022-09-09T03:48:10;17.30;99.90
15844;DHT22;50807;52.436;13.346;2022-09-09T03:48:42;17.30;99.90
15844;DHT22;50807;52.436;13.346;2022-09-09T03:49:13;17.30;99.90
15844;DHT22;50807;52.436;13.346;2022-09-09T03:49:44;17.30;99.90
15844;DHT22;50807;52.436;13.346;2022-09-09T03:50:17;17.30;99.90
15844;DHT22;50807;52.436;13.346;2022-09-09T03:50:49;17.30;99.90
15844;DHT22;50807;52.436;13.346;2022-09-09T03:51:21;17.30;99.90
15844;DHT22;50807;52.436;13.346;2022-09-09T03:51:54;17.30;99.90
15844;DHT22;50807;52.436;13.346;2022-09-09T03:52:24;17.30;99.90
15844;DHT22;50807;52.436;13.346;2022-09-09T03:52:56;17.30;99.90
15844;DHT22;50807;52.436;13.346;2022-09-09T03:53:28;17.30;99.90